createdAt,value
2022-11-17T01:00:49.566Z,937.18
2022-11-17T01:01:05.888Z,937.21
2022-11-17T01:02:05.828Z,937.18
2022-11-17T01:03:05.827Z,937.18
2022-11-17T01:04:05.817Z,937.18
2022-11-17T01:05:05.800Z,937.22
2022-11-17T01:06:05.790Z,937.16
2022-11-17T01:07:05.944Z,937.21
2022-11-17T01:08:05.773Z,937.19
2022-11-17T01:09:05.770Z,937.16
2022-11-17T01:10:05.749Z,937.16
2022-11-17T01:11:05.741Z,937.14
2022-11-17T01:12:05.724Z,937.15
2022-11-17T01:13:05.718Z,937.18
2022-11-17T01:14:05.704Z,937.16
2022-11-17T01:15:05.698Z,937.17
2022-11-17T01:16:05.690Z,937.12
2022-11-17T01:17:05.678Z,937.12
2022-11-17T01:18:05.663Z,937.12
2022-11-17T01:19:05.653Z,937.10
2022-11-17T01:20:05.648Z,937.07
2022-11-17T01:21:05.633Z,937.08
2022-11-17T01:22:05.626Z,937.12
2022-11-17T01:23:05.611Z,937.09
2022-11-17T01:24:05.602Z,937.09
2022-11-17T01:25:05.597Z,937.03
2022-11-17T01:26:05.584Z,937.04
2022-11-17T01:27:05.573Z,937.03
2022-11-17T01:28:05.663Z,937.05
2022-11-17T01:29:05.554Z,937.03
2022-11-17T01:30:05.544Z,937.02
2022-11-17T01:31:05.528Z,937.03
2022-11-17T01:32:05.515Z,937.02
2022-11-17T01:33:05.505Z,937.02
2022-11-17T01:34:05.495Z,937.01
2022-11-17T01:35:05.492Z,937.04
2022-11-17T01:36:05.480Z,937.04
2022-11-17T01:37:05.462Z,937.04
2022-11-17T01:38:05.453Z,937.03
2022-11-17T01:39:05.447Z,937.00
2022-11-17T01:40:05.434Z,936.99
2022-11-17T01:41:05.427Z,937.02
2022-11-17T01:42:05.422Z,937.01
2022-11-17T01:43:05.408Z,937.00
2022-11-17T01:44:05.391Z,936.99
2022-11-17T01:45:05.379Z,937.01
2022-11-17T01:46:05.366Z,936.98
2022-11-17T01:47:05.357Z,937.04
2022-11-17T01:48:05.356Z,936.97
2022-11-17T01:49:05.335Z,936.99
2022-11-17T01:50:05.329Z,936.96
2022-11-17T01:51:05.320Z,937.03
2022-11-17T01:52:05.311Z,937.01
2022-11-17T01:53:05.399Z,937.03
2022-11-17T01:54:05.280Z,937.02
2022-11-17T01:55:05.361Z,937.01
2022-11-17T01:56:05.275Z,937.03
2022-11-17T01:57:05.332Z,936.99
2022-11-17T01:58:05.306Z,936.98
2022-11-17T01:59:05.348Z,936.96
2022-11-17T02:00:05.304Z,936.97
2022-11-17T02:01:05.275Z,936.95
2022-11-17T02:02:05.259Z,936.91
2022-11-17T02:03:05.283Z,936.90
2022-11-17T02:04:05.278Z,936.91
2022-11-17T02:05:05.286Z,936.92
2022-11-17T02:06:05.267Z,936.88
2022-11-17T02:07:05.237Z,936.93
2022-11-17T02:08:05.316Z,936.87
2022-11-17T02:09:05.246Z,936.89
2022-11-17T02:10:05.403Z,936.88
2022-11-17T02:11:05.167Z,936.90
2022-11-17T02:12:05.093Z,936.88
2022-11-17T02:13:05.137Z,936.90
2022-11-17T02:14:05.088Z,936.85
2022-11-17T02:15:05.099Z,936.86
2022-11-17T02:16:05.125Z,936.86
2022-11-17T02:17:10.288Z,936.86
2022-11-17T02:18:05.126Z,936.82
2022-11-17T02:19:05.104Z,936.82
2022-11-17T02:20:05.130Z,936.85
2022-11-17T02:21:05.121Z,936.83
2022-11-17T02:22:04.990Z,936.80
2022-11-17T02:23:05.086Z,936.81
2022-11-17T02:24:05.009Z,936.82
2022-11-17T02:25:05.102Z,936.77
2022-11-17T02:26:05.066Z,936.76
2022-11-17T02:27:04.992Z,936.71
2022-11-17T02:28:05.004Z,936.71
2022-11-17T02:29:05.118Z,936.71
2022-11-17T02:30:04.980Z,936.73
2022-11-17T02:31:05.059Z,936.64
2022-11-17T02:32:04.991Z,936.63
2022-11-17T02:33:04.873Z,936.64
2022-11-17T02:34:04.857Z,936.61
2022-11-17T02:35:04.871Z,936.62
2022-11-17T02:36:04.834Z,936.60
2022-11-17T02:37:04.828Z,936.60
2022-11-17T02:38:04.815Z,936.63
2022-11-17T02:39:04.806Z,936.64
2022-11-17T02:40:04.796Z,936.60
2022-11-17T02:41:04.786Z,936.59
2022-11-17T02:42:04.776Z,936.62
2022-11-17T02:43:04.766Z,936.56
2022-11-17T02:44:04.750Z,936.57
2022-11-17T02:45:04.746Z,936.60
2022-11-17T02:46:04.730Z,936.54
2022-11-17T02:47:04.724Z,936.58
2022-11-17T02:48:04.708Z,936.61
2022-11-17T02:49:04.701Z,936.57
2022-11-17T02:50:04.786Z,936.57
2022-11-17T02:51:04.676Z,936.58
2022-11-17T02:52:04.664Z,936.58
2022-11-17T02:53:04.728Z,936.57
2022-11-17T02:54:04.648Z,936.58
2022-11-17T02:55:04.638Z,936.55
2022-11-17T02:56:04.725Z,936.52
2022-11-17T02:57:04.612Z,936.48
2022-11-17T02:58:04.599Z,936.46
2022-11-17T02:59:04.586Z,936.48
2022-11-17T03:00:04.574Z,936.42
2022-11-17T03:01:04.566Z,936.41
2022-11-17T03:02:04.634Z,936.37
2022-11-17T03:03:04.542Z,936.34
2022-11-17T03:04:04.535Z,936.35
2022-11-17T03:05:04.519Z,936.32
2022-11-17T03:06:04.518Z,936.36
2022-11-17T03:07:04.664Z,936.33
2022-11-17T03:08:04.496Z,936.26
2022-11-17T03:09:04.484Z,936.27
2022-11-17T03:10:04.493Z,936.23
2022-11-17T03:11:04.459Z,936.23
2022-11-17T03:12:04.449Z,936.24
2022-11-17T03:13:04.435Z,936.21
2022-11-17T03:14:04.422Z,936.23
2022-11-17T03:15:04.429Z,936.20
2022-11-17T03:16:04.404Z,936.21
2022-11-17T03:17:04.390Z,936.17
2022-11-17T03:18:04.385Z,936.19
2022-11-17T03:19:04.373Z,936.13
2022-11-17T03:20:04.360Z,936.17
2022-11-17T03:21:04.347Z,936.12
2022-11-17T03:22:04.342Z,936.11
2022-11-17T03:23:04.328Z,936.07
2022-11-17T03:24:04.316Z,936.14
2022-11-17T03:25:04.305Z,936.12
2022-11-17T03:26:04.293Z,936.09
2022-11-17T03:27:04.386Z,936.06
2022-11-17T03:28:04.272Z,936.03
2022-11-17T03:29:04.258Z,936.03
2022-11-17T03:30:04.250Z,935.99
2022-11-17T03:31:04.241Z,936.03
2022-11-17T03:32:04.228Z,936.05
2022-11-17T03:33:04.214Z,936.03
2022-11-17T03:34:04.202Z,936.02
2022-11-17T03:35:04.201Z,936.03
2022-11-17T03:36:04.188Z,936.00
2022-11-17T03:37:04.278Z,935.99
2022-11-17T03:38:04.164Z,936.03
2022-11-17T03:39:04.150Z,936.02
2022-11-17T03:40:04.144Z,935.99
2022-11-17T03:41:04.134Z,935.96
2022-11-17T03:42:04.120Z,935.95
2022-11-17T03:43:04.113Z,935.94
2022-11-17T03:44:04.099Z,935.94
2022-11-17T03:45:04.089Z,935.90
2022-11-17T03:46:04.078Z,935.90
2022-11-17T03:47:04.063Z,935.88
2022-11-17T03:48:04.058Z,935.89
2022-11-17T03:49:04.044Z,935.88
2022-11-17T03:50:04.033Z,935.88
2022-11-17T03:51:04.032Z,935.90
2022-11-17T03:52:04.013Z,935.87
2022-11-17T03:53:04.097Z,935.85
2022-11-17T03:54:03.990Z,935.87
2022-11-17T03:55:03.984Z,935.88
2022-11-17T03:56:03.975Z,935.90
2022-11-17T03:57:03.956Z,935.88
2022-11-17T03:58:04.045Z,935.88
2022-11-17T03:59:03.935Z,935.83
2022-11-17T04:00:03.922Z,935.80
2022-11-17T04:01:03.913Z,935.79
2022-11-17T04:02:03.950Z,935.77
2022-11-17T04:03:03.988Z,935.72
2022-11-17T04:04:03.876Z,935.71
2022-11-17T04:05:03.870Z,935.71
2022-11-17T04:06:03.859Z,935.69
2022-11-17T04:07:03.887Z,935.68
2022-11-17T04:08:03.942Z,935.67
2022-11-17T04:09:03.856Z,935.69
2022-11-17T04:10:03.816Z,935.67
2022-11-17T04:11:03.803Z,935.69
2022-11-17T04:12:03.799Z,935.69
2022-11-17T04:13:03.790Z,935.66
2022-11-17T04:14:03.776Z,935.65
2022-11-17T04:15:03.762Z,935.61
2022-11-17T04:16:03.757Z,935.63
2022-11-17T04:17:03.737Z,935.61
2022-11-17T04:18:03.722Z,935.60
2022-11-17T04:19:03.726Z,935.62
2022-11-17T04:20:03.710Z,935.60
2022-11-17T04:21:03.693Z,935.59
2022-11-17T04:22:03.684Z,935.58
2022-11-17T04:23:03.779Z,935.55
2022-11-17T04:24:03.760Z,935.58
2022-11-17T04:25:03.656Z,935.57
2022-11-17T04:26:03.643Z,935.59
2022-11-17T04:27:03.630Z,935.58
2022-11-17T04:28:03.616Z,935.57
2022-11-17T04:29:03.607Z,935.52
2022-11-17T04:30:03.594Z,935.53
2022-11-17T04:31:03.585Z,935.55
2022-11-17T04:32:03.572Z,935.55
2022-11-17T04:33:03.561Z,935.51
2022-11-17T04:34:03.553Z,935.50
2022-11-17T04:35:03.641Z,935.51
2022-11-17T04:36:03.526Z,935.48
2022-11-17T04:37:08.185Z,935.47
2022-11-17T04:38:03.504Z,935.48
2022-11-17T04:39:03.502Z,935.44
2022-11-17T04:40:03.488Z,935.41
2022-11-17T04:41:03.470Z,935.39
2022-11-17T04:42:03.468Z,935.36
2022-11-17T04:43:03.450Z,935.36
2022-11-17T04:44:03.445Z,935.31
2022-11-17T04:45:03.434Z,935.28
2022-11-17T04:46:03.415Z,935.27
2022-11-17T04:47:03.410Z,935.26
2022-11-17T04:48:03.398Z,935.27
2022-11-17T04:49:03.393Z,935.23
2022-11-17T04:50:03.475Z,935.24
2022-11-17T04:51:03.371Z,935.24
2022-11-17T04:52:03.353Z,935.22
2022-11-17T04:53:03.448Z,935.27
2022-11-17T04:54:03.343Z,935.23
2022-11-17T04:55:03.322Z,935.23
2022-11-17T04:56:03.306Z,935.20
2022-11-17T04:57:03.298Z,935.19
2022-11-17T04:58:03.387Z,935.22
2022-11-17T04:59:03.281Z,935.17
2022-11-17T05:00:03.366Z,935.22
2022-11-17T05:01:03.258Z,935.24
2022-11-17T05:02:06.158Z,935.25
2022-11-17T05:03:03.232Z,935.25
2022-11-17T05:04:03.227Z,935.26
2022-11-17T05:05:03.214Z,935.26
2022-11-17T05:06:03.205Z,935.26
2022-11-17T05:07:03.240Z,935.25
2022-11-17T05:08:03.188Z,935.22
2022-11-17T05:09:03.167Z,935.22
2022-11-17T05:10:03.155Z,935.18
2022-11-17T05:11:03.224Z,935.17
2022-11-17T05:12:03.133Z,935.17
2022-11-17T05:13:03.121Z,935.14
2022-11-17T05:14:03.115Z,935.12
2022-11-17T05:15:03.102Z,935.13
2022-11-17T05:16:03.188Z,935.11
2022-11-17T05:17:08.693Z,935.11
2022-11-17T05:18:03.064Z,935.13
2022-11-17T05:19:03.055Z,935.05
2022-11-17T05:20:03.045Z,935.08
2022-11-17T05:21:03.036Z,935.03
2022-11-17T05:22:03.023Z,935.01
2022-11-17T05:23:06.795Z,935.01
2022-11-17T05:24:02.999Z,935.00
2022-11-17T05:25:02.984Z,935.00
2022-11-17T05:26:02.982Z,934.98
2022-11-17T05:27:02.977Z,934.99
2022-11-17T05:28:02.959Z,935.02
2022-11-17T05:29:02.945Z,935.00
2022-11-17T05:30:02.934Z,935.02
2022-11-17T05:31:02.929Z,935.00
2022-11-17T05:32:03.024Z,935.00
2022-11-17T05:33:02.895Z,934.96
2022-11-17T05:34:02.884Z,935.01
2022-11-17T05:35:02.882Z,934.98
2022-11-17T05:36:02.878Z,934.97
2022-11-17T05:37:02.858Z,934.97
2022-11-17T05:38:02.843Z,934.95
2022-11-17T05:39:02.834Z,934.95
2022-11-17T05:40:02.824Z,934.98
2022-11-17T05:41:02.812Z,934.93
2022-11-17T05:42:02.799Z,934.96
2022-11-17T05:43:02.788Z,934.97
2022-11-17T05:44:02.776Z,934.97
2022-11-17T05:45:02.772Z,934.96
2022-11-17T05:46:02.758Z,934.97
2022-11-17T05:47:02.841Z,934.97
2022-11-17T05:48:02.728Z,934.92
2022-11-17T05:49:02.719Z,934.90
2022-11-17T05:50:02.710Z,934.92
2022-11-17T05:51:02.698Z,934.91
2022-11-17T05:52:02.690Z,934.91
2022-11-17T05:53:02.670Z,934.91
2022-11-17T05:54:02.683Z,934.96
2022-11-17T05:55:02.653Z,934.93
2022-11-17T05:56:02.644Z,934.95
2022-11-17T05:57:02.638Z,934.95
2022-11-17T05:58:02.623Z,935.00
2022-11-17T05:59:02.614Z,935.00
2022-11-17T06:00:02.593Z,934.96
2022-11-17T06:01:02.589Z,934.98
2022-11-17T06:02:02.585Z,934.98
2022-11-17T06:03:02.660Z,935.01
2022-11-17T06:04:02.595Z,935.00
2022-11-17T06:05:02.543Z,934.97
2022-11-17T06:06:02.540Z,934.97
2022-11-17T06:07:02.617Z,934.99
2022-11-17T06:08:02.507Z,934.96
2022-11-17T06:09:02.499Z,934.93
2022-11-17T06:10:02.490Z,934.94
2022-11-17T06:11:02.470Z,934.93
2022-11-17T06:12:05.822Z,934.92
2022-11-17T06:13:02.448Z,934.91
2022-11-17T06:14:02.440Z,934.89
2022-11-17T06:15:02.433Z,934.87
2022-11-17T06:16:02.428Z,934.91
2022-11-17T06:17:02.410Z,934.89
2022-11-17T06:18:02.498Z,934.89
2022-11-17T06:19:02.379Z,934.84
2022-11-17T06:20:02.374Z,934.84
2022-11-17T06:21:02.360Z,934.83
2022-11-17T06:22:12.038Z,934.79
2022-11-17T06:23:02.341Z,934.81
2022-11-17T06:24:02.327Z,934.79
2022-11-17T06:25:02.319Z,934.76
2022-11-17T06:26:02.313Z,934.77
2022-11-17T06:27:02.285Z,934.73
2022-11-17T06:28:02.279Z,934.72
2022-11-17T06:29:02.269Z,934.71
2022-11-17T06:30:02.255Z,934.73
2022-11-17T06:31:02.244Z,934.74
2022-11-17T06:32:02.234Z,934.73
2022-11-17T06:33:02.321Z,934.70
2022-11-17T06:34:02.220Z,934.71
2022-11-17T06:35:02.198Z,934.72
2022-11-17T06:36:02.185Z,934.70
2022-11-17T06:37:02.182Z,934.70
2022-11-17T06:38:02.162Z,934.70
2022-11-17T06:39:02.155Z,934.68
2022-11-17T06:40:02.144Z,934.68
2022-11-17T06:41:02.988Z,934.65
2022-11-17T06:42:02.128Z,934.64
2022-11-17T06:43:02.109Z,934.65
2022-11-17T06:44:02.094Z,934.68
2022-11-17T06:45:02.090Z,934.70
2022-11-17T06:46:02.077Z,934.66
2022-11-17T06:47:02.063Z,934.64
2022-11-17T06:48:02.054Z,934.65
2022-11-17T06:49:02.143Z,934.66
2022-11-17T06:50:02.029Z,934.67
2022-11-17T06:51:02.026Z,934.65
2022-11-17T06:52:02.018Z,934.63
2022-11-17T06:53:02.004Z,934.68
2022-11-17T06:54:02.002Z,934.65
2022-11-17T06:55:01.985Z,934.64
2022-11-17T06:56:01.981Z,934.64
2022-11-17T06:57:01.981Z,934.63
2022-11-17T06:58:01.962Z,934.67
2022-11-17T06:59:01.940Z,934.64
2022-11-17T07:00:01.934Z,934.63
2022-11-17T07:01:01.954Z,934.61
2022-11-17T07:02:01.911Z,934.63
2022-11-17T07:03:01.892Z,934.59
2022-11-17T07:04:01.988Z,934.62
2022-11-17T07:05:01.867Z,934.60
2022-11-17T07:06:01.864Z,934.61
2022-11-17T07:07:01.914Z,934.61
2022-11-17T07:08:01.846Z,934.61
2022-11-17T07:09:01.819Z,934.60
2022-11-17T07:10:01.819Z,934.59
2022-11-17T07:11:01.806Z,934.59
2022-11-17T07:12:01.800Z,934.59
2022-11-17T07:13:01.781Z,934.59
2022-11-17T07:14:01.783Z,934.56
2022-11-17T07:15:01.769Z,934.59
2022-11-17T07:16:01.758Z,934.58
2022-11-17T07:17:01.730Z,934.58
2022-11-17T07:18:01.727Z,934.60
2022-11-17T07:19:01.714Z,934.59
2022-11-17T07:20:01.807Z,934.61
2022-11-17T07:21:01.686Z,934.59
2022-11-17T07:22:01.677Z,934.66
2022-11-17T07:23:01.667Z,934.66
2022-11-17T07:24:01.652Z,934.64
2022-11-17T07:25:01.639Z,934.65
2022-11-17T07:26:01.630Z,934.65
2022-11-17T07:27:01.618Z,934.66
2022-11-17T07:28:01.623Z,934.68
2022-11-17T07:29:01.585Z,934.69
2022-11-17T07:30:01.583Z,934.69
2022-11-17T07:31:01.565Z,934.65
2022-11-17T07:32:01.564Z,934.59
2022-11-17T07:33:01.543Z,934.63
2022-11-17T07:34:01.534Z,934.62
2022-11-17T07:35:01.525Z,934.59
2022-11-17T07:36:01.624Z,934.63
2022-11-17T07:37:01.498Z,934.66
2022-11-17T07:38:01.498Z,934.66
2022-11-17T07:39:01.476Z,934.66
2022-11-17T07:40:01.467Z,934.66
2022-11-17T07:41:01.451Z,934.67
2022-11-17T07:42:01.447Z,934.69
2022-11-17T07:43:01.430Z,934.69
2022-11-17T07:44:01.420Z,934.72
2022-11-17T07:45:01.402Z,934.70
2022-11-17T07:46:01.407Z,934.68
2022-11-17T07:47:01.378Z,934.63
2022-11-17T07:48:01.385Z,934.67
2022-11-17T07:49:01.349Z,934.67
2022-11-17T07:50:01.347Z,934.64
2022-11-17T07:51:01.430Z,934.67
2022-11-17T07:52:01.324Z,934.67
2022-11-17T07:53:01.309Z,934.68
2022-11-17T07:54:01.309Z,934.68
2022-11-17T07:55:01.287Z,934.69
2022-11-17T07:56:01.280Z,934.73
2022-11-17T07:57:01.272Z,934.69
2022-11-17T07:58:01.274Z,934.74
2022-11-17T07:59:01.239Z,934.73
2022-11-17T08:00:01.232Z,934.76
2022-11-17T08:01:01.231Z,934.76
2022-11-17T08:02:01.212Z,934.76
2022-11-17T08:03:01.196Z,934.74
2022-11-17T08:04:01.262Z,934.77
2022-11-17T08:05:01.174Z,934.73
2022-11-17T08:06:01.161Z,934.73
2022-11-17T08:07:01.190Z,934.72
2022-11-17T08:08:01.141Z,934.70
2022-11-17T08:09:01.115Z,934.73
2022-11-17T08:10:01.119Z,934.72
2022-11-17T08:11:01.096Z,934.74
2022-11-17T08:12:01.093Z,934.72
2022-11-17T08:13:01.071Z,934.74
2022-11-17T08:14:01.070Z,934.75
2022-11-17T08:15:01.055Z,934.79
2022-11-17T08:16:01.053Z,934.78
2022-11-17T08:17:01.024Z,934.80
2022-11-17T08:18:01.023Z,934.80
2022-11-17T08:19:01.001Z,934.82
2022-11-17T08:20:00.997Z,934.83
2022-11-17T08:21:00.978Z,934.76
2022-11-17T08:22:01.069Z,934.83
2022-11-17T08:23:00.955Z,934.85
2022-11-17T08:24:00.952Z,934.85
2022-11-17T08:25:00.932Z,934.86
2022-11-17T08:26:00.930Z,934.86
2022-11-17T08:27:00.907Z,934.86
2022-11-17T08:28:00.901Z,934.86
2022-11-17T08:29:00.882Z,934.87
2022-11-17T08:30:00.886Z,934.87
2022-11-17T08:31:00.855Z,934.89
2022-11-17T08:32:00.852Z,934.93
2022-11-17T08:33:00.835Z,934.96
2022-11-17T08:34:00.830Z,934.93
2022-11-17T08:35:00.810Z,934.93
2022-11-17T08:36:00.814Z,934.91
2022-11-17T08:37:00.905Z,934.94
2022-11-17T08:38:00.783Z,934.94
2022-11-17T08:39:00.764Z,934.92
2022-11-17T08:40:00.761Z,934.94
2022-11-17T08:41:00.743Z,934.95
2022-11-17T08:42:00.740Z,934.97
2022-11-17T08:43:01.520Z,934.96
2022-11-17T08:44:00.715Z,934.96
2022-11-17T08:45:00.690Z,934.98
2022-11-17T08:46:00.691Z,934.97
2022-11-17T08:47:00.674Z,934.99
2022-11-17T08:48:00.768Z,934.97
2022-11-17T08:49:00.646Z,934.99
2022-11-17T08:50:00.641Z,934.99
2022-11-17T08:51:00.624Z,935.00
2022-11-17T08:52:00.629Z,935.03
2022-11-17T08:53:00.598Z,935.03
2022-11-17T08:54:00.594Z,935.04
2022-11-17T08:55:00.665Z,935.05
2022-11-17T08:56:00.570Z,935.04
2022-11-17T08:57:00.590Z,935.06
2022-11-17T08:58:00.548Z,935.07
2022-11-17T08:59:00.529Z,935.08
2022-11-17T09:00:00.514Z,935.08
2022-11-17T09:01:05.066Z,935.10
2022-11-17T09:02:00.491Z,935.14
2022-11-17T09:03:00.474Z,935.19
2022-11-17T09:04:00.570Z,935.18
2022-11-17T09:05:00.449Z,935.17
2022-11-17T09:06:00.460Z,935.15
2022-11-17T09:07:00.473Z,935.19
2022-11-17T09:08:15.938Z,935.20
2022-11-17T09:09:00.670Z,935.22
2022-11-17T09:10:00.393Z,935.23
2022-11-17T09:11:00.381Z,935.24
2022-11-17T09:12:00.377Z,935.25
2022-11-17T09:13:00.360Z,935.30
2022-11-17T09:14:00.352Z,935.29
2022-11-17T09:15:00.342Z,935.31
2022-11-17T09:16:00.330Z,935.38
2022-11-17T09:17:00.316Z,935.39
2022-11-17T09:18:00.322Z,935.40
2022-11-17T09:19:00.398Z,935.40
2022-11-17T09:20:00.302Z,935.41
2022-11-17T09:21:00.269Z,935.43
2022-11-17T09:22:00.255Z,935.45
2022-11-17T09:23:00.246Z,935.43
2022-11-17T09:24:00.234Z,935.42
2022-11-17T09:25:00.218Z,935.44
2022-11-17T09:26:00.209Z,935.43
2022-11-17T09:27:00.201Z,935.41
2022-11-17T09:28:00.186Z,935.45
2022-11-17T09:29:00.174Z,935.46
2022-11-17T09:30:00.269Z,935.48
2022-11-17T09:31:01.474Z,935.50
2022-11-17T09:32:00.147Z,935.47
2022-11-17T09:33:00.134Z,935.51
2022-11-17T09:34:04.837Z,935.52
2022-11-17T09:35:00.108Z,935.53
2022-11-17T09:36:00.200Z,935.55
2022-11-17T09:37:00.086Z,935.54
2022-11-17T09:38:00.084Z,935.58
2022-11-17T09:39:00.069Z,935.60
2022-11-17T09:40:00.045Z,935.55
2022-11-17T09:41:00.140Z,935.60
2022-11-17T09:42:00.036Z,935.66
2022-11-17T09:43:00.027Z,935.65
2022-11-17T09:44:00.004Z,935.65
2022-11-17T09:44:59.996Z,935.66
2022-11-17T09:46:04.468Z,935.68
2022-11-17T09:46:59.972Z,935.70
2022-11-17T09:48:18.404Z,935.72
2022-11-17T09:48:59.959Z,935.73
2022-11-17T09:49:59.944Z,935.71
2022-11-17T09:51:00.031Z,935.75
2022-11-17T09:51:59.922Z,935.76
2022-11-17T09:52:59.911Z,935.75
2022-11-17T09:53:59.896Z,935.79
2022-11-17T09:54:59.891Z,935.78
2022-11-17T09:55:59.873Z,935.77
2022-11-17T09:56:59.869Z,935.79
2022-11-17T09:57:59.848Z,935.78
2022-11-17T09:58:59.841Z,935.80
2022-11-17T09:59:59.830Z,935.79
2022-11-17T10:00:59.824Z,935.74
2022-11-17T10:01:59.845Z,935.81
2022-11-17T10:02:59.800Z,935.80
2022-11-17T10:03:59.785Z,935.78
2022-11-17T10:04:59.785Z,935.78
2022-11-17T10:05:59.770Z,935.82
2022-11-17T10:06:59.782Z,935.89
2022-11-17T10:07:59.740Z,935.88
2022-11-17T10:08:59.743Z,935.91
2022-11-17T10:09:59.733Z,935.90
2022-11-17T10:10:59.715Z,935.88
2022-11-17T10:11:59.701Z,935.92
2022-11-17T10:12:59.694Z,935.89
2022-11-17T10:13:59.681Z,935.88
2022-11-17T10:14:59.675Z,935.88
2022-11-17T10:15:59.665Z,935.90
2022-11-17T10:16:59.753Z,935.94
2022-11-17T10:17:59.641Z,935.93
2022-11-17T10:18:59.632Z,935.95
2022-11-17T10:19:59.624Z,935.97
2022-11-17T10:20:59.612Z,935.92
2022-11-17T10:21:59.598Z,935.96
2022-11-17T10:23:00.146Z,935.96
2022-11-17T10:23:59.587Z,935.96
2022-11-17T10:24:59.573Z,935.93
2022-11-17T10:25:59.557Z,935.97
2022-11-17T10:26:59.554Z,935.98
2022-11-17T10:27:59.538Z,936.00
2022-11-17T10:29:02.773Z,935.96
2022-11-17T10:29:59.526Z,935.98
2022-11-17T10:30:59.513Z,936.00
2022-11-17T10:31:59.492Z,936.01
2022-11-17T10:32:59.489Z,935.97
2022-11-17T10:33:59.519Z,935.95
2022-11-17T10:34:59.465Z,935.94
2022-11-17T10:35:59.456Z,935.92
2022-11-17T10:36:59.453Z,935.94
2022-11-17T10:37:59.438Z,935.94
2022-11-17T10:38:59.434Z,935.95
2022-11-17T10:39:59.413Z,935.97
2022-11-17T10:40:59.419Z,935.96
2022-11-17T10:41:59.403Z,935.98
2022-11-17T10:42:59.489Z,935.97
2022-11-17T10:43:59.380Z,935.96
2022-11-17T10:44:59.367Z,935.99
2022-11-17T10:45:59.363Z,935.97
2022-11-17T10:47:02.787Z,935.96
2022-11-17T10:47:59.338Z,936.03
2022-11-17T10:48:59.329Z,935.99
2022-11-17T10:49:59.316Z,936.00
2022-11-17T10:50:59.314Z,935.98
2022-11-17T10:51:59.296Z,935.98
2022-11-17T10:52:59.294Z,935.99
2022-11-17T10:53:59.276Z,936.09
2022-11-17T10:54:59.267Z,936.01
2022-11-17T10:55:59.254Z,936.01
2022-11-17T10:56:59.248Z,936.05
2022-11-17T10:57:59.243Z,936.03
2022-11-17T10:58:59.233Z,936.09
2022-11-17T10:59:59.219Z,936.02
2022-11-17T11:00:59.276Z,936.05
2022-11-17T11:01:59.205Z,936.03
2022-11-17T11:02:59.199Z,936.09
2022-11-17T11:03:59.181Z,936.04
2022-11-17T11:04:59.175Z,936.11
2022-11-17T11:05:59.166Z,936.10
2022-11-17T11:06:59.220Z,936.09
2022-11-17T11:07:59.149Z,936.07
2022-11-17T11:08:59.133Z,936.11
2022-11-17T11:09:59.125Z,936.14
2022-11-17T11:10:59.118Z,936.12
2022-11-17T11:11:59.103Z,936.13
2022-11-17T11:12:59.095Z,936.16
2022-11-17T11:13:59.184Z,936.14
2022-11-17T11:14:59.080Z,936.13
2022-11-17T11:15:59.069Z,936.14
2022-11-17T11:16:59.056Z,936.14
2022-11-17T11:17:59.046Z,936.13
2022-11-17T11:18:59.048Z,936.16
2022-11-17T11:19:59.032Z,936.15
2022-11-17T11:20:59.018Z,936.10
2022-11-17T11:21:59.010Z,936.10
2022-11-17T11:22:59.006Z,936.18
2022-11-17T11:23:59.086Z,936.16
2022-11-17T11:24:58.994Z,936.13
2022-11-17T11:25:58.977Z,936.14
2022-11-17T11:26:58.968Z,936.15
2022-11-17T11:27:58.965Z,936.11
2022-11-17T11:28:58.946Z,936.11
2022-11-17T11:29:58.940Z,936.13
2022-11-17T11:30:58.931Z,936.09
2022-11-17T11:31:58.927Z,936.12
2022-11-17T11:32:58.920Z,936.10
2022-11-17T11:33:58.898Z,936.11
2022-11-17T11:34:58.904Z,936.09
2022-11-17T11:35:58.885Z,936.15
2022-11-17T11:36:58.878Z,936.12
2022-11-17T11:37:58.865Z,936.17
2022-11-17T11:38:58.863Z,936.20
2022-11-17T11:39:58.854Z,936.15
2022-11-17T11:40:58.842Z,936.15
2022-11-17T11:42:01.002Z,936.14
2022-11-17T11:42:58.836Z,936.18
2022-11-17T11:43:58.820Z,936.13
2022-11-17T11:44:58.814Z,936.13
2022-11-17T11:45:58.800Z,936.11
2022-11-17T11:46:58.797Z,936.12
2022-11-17T11:47:58.785Z,936.10
2022-11-17T11:48:58.772Z,936.12
2022-11-17T11:49:58.767Z,936.15
2022-11-17T11:50:58.766Z,936.12
2022-11-17T11:51:58.754Z,936.17
2022-11-17T11:52:58.742Z,936.01
2022-11-17T11:53:58.736Z,936.17
2022-11-17T11:54:58.725Z,936.22
2022-11-17T11:55:58.724Z,936.18
2022-11-17T11:56:58.713Z,936.20
2022-11-17T11:57:58.692Z,936.14
2022-11-17T11:58:58.697Z,936.14
2022-11-17T12:00:03.731Z,936.13
2022-11-17T12:00:58.681Z,936.17
2022-11-17T12:01:58.709Z,936.20
2022-11-17T12:02:58.711Z,936.24
2022-11-17T12:03:58.652Z,936.22
2022-11-17T12:04:58.647Z,936.28
2022-11-17T12:05:58.638Z,936.22
2022-11-17T12:06:58.710Z,936.23
2022-11-17T12:07:58.625Z,936.17
2022-11-17T12:08:58.615Z,936.20
2022-11-17T12:09:58.617Z,936.20
2022-11-17T12:10:58.606Z,936.21
2022-11-17T12:11:58.590Z,936.18
2022-11-17T12:12:58.609Z,936.16
2022-11-17T12:13:58.581Z,936.16
2022-11-17T12:14:58.583Z,936.19
2022-11-17T12:15:58.572Z,936.24
2022-11-17T12:16:58.560Z,936.20
2022-11-17T12:17:58.565Z,936.26
2022-11-17T12:18:58.553Z,936.33
2022-11-17T12:19:58.551Z,936.27
2022-11-17T12:20:58.537Z,936.22
2022-11-17T12:21:58.524Z,936.21
2022-11-17T12:22:58.532Z,936.25
2022-11-17T12:23:58.518Z,936.21
2022-11-17T12:24:58.520Z,936.23
2022-11-17T12:25:58.504Z,936.24
2022-11-17T12:26:58.501Z,936.22
2022-11-17T12:27:58.488Z,936.22
2022-11-17T12:28:58.501Z,936.22
2022-11-17T12:29:58.483Z,936.20
2022-11-17T12:30:58.478Z,936.21
2022-11-17T12:31:58.470Z,936.18
2022-11-17T12:32:58.478Z,936.26
2022-11-17T12:33:58.464Z,936.26
2022-11-17T12:34:58.460Z,936.29
2022-11-17T12:35:58.456Z,936.29
2022-11-17T12:36:58.447Z,936.23
2022-11-17T12:37:58.453Z,936.26
2022-11-17T12:38:58.450Z,936.21
2022-11-17T12:39:58.440Z,936.18
2022-11-17T12:40:58.440Z,936.17
2022-11-17T12:41:58.427Z,936.19
2022-11-17T12:42:58.429Z,936.18
2022-11-17T12:43:58.418Z,936.12
2022-11-17T12:44:58.421Z,936.12
2022-11-17T12:45:58.409Z,936.13
2022-11-17T12:46:58.411Z,936.15
2022-11-17T12:48:18.806Z,936.15
2022-11-17T12:48:58.471Z,936.10
2022-11-17T12:49:58.395Z,936.12
2022-11-17T12:51:03.379Z,936.13
2022-11-17T12:51:58.387Z,936.16
2022-11-17T12:52:58.388Z,936.18
2022-11-17T12:53:58.388Z,936.18
2022-11-17T12:54:58.376Z,936.20
2022-11-17T12:55:58.375Z,936.19
2022-11-17T12:56:58.372Z,936.13
2022-11-17T12:57:58.371Z,936.16
2022-11-17T12:58:58.360Z,936.13
2022-11-17T12:59:58.353Z,936.11
2022-11-17T13:00:58.398Z,936.12
2022-11-17T13:01:58.348Z,936.14
2022-11-17T13:02:58.347Z,936.14
2022-11-17T13:03:58.342Z,936.10
2022-11-17T13:04:58.341Z,936.07
2022-11-17T13:06:20.249Z,936.14
2022-11-17T13:06:58.382Z,936.10
2022-11-17T13:07:58.334Z,936.15
2022-11-17T13:08:58.327Z,936.10
2022-11-17T13:09:58.319Z,936.16
2022-11-17T13:10:58.312Z,936.12
2022-11-17T13:11:58.309Z,936.08
2022-11-17T13:12:58.312Z,936.09
2022-11-17T13:13:58.302Z,936.10
2022-11-17T13:14:58.302Z,936.08
2022-11-17T13:15:58.303Z,936.07
2022-11-17T13:16:58.298Z,936.08
2022-11-17T13:17:58.291Z,936.09
2022-11-17T13:18:58.291Z,936.02
2022-11-17T13:19:58.382Z,936.03
2022-11-17T13:20:58.287Z,935.99
2022-11-17T13:21:58.267Z,936.01
2022-11-17T13:22:58.272Z,936.02
2022-11-17T13:23:58.268Z,936.01
2022-11-17T13:24:58.270Z,936.02
2022-11-17T13:25:58.255Z,936.07
2022-11-17T13:26:58.261Z,936.03
2022-11-17T13:28:04.149Z,935.99